La Virgen del Camino, Spain

10:29 AM CEST on September 04, 2015 (GMT +0200)
Leon | | Change Station
CLOSE
Current Station
Airport
Location: Leon,
Elevation: 2999 ft
Nearby Weather Stations

Elev 2999 ft 42.59 °N, 5.65 °W | Updated 29 minutes ago

Scattered Clouds
Scattered Clouds
52 °F
Feels Like 52 °F
N
2
Wind Variable Wind from Variable

Today
High -- | Low -- °F
--% Chance of Precip.
Yesterday
High -- | Low -- °F
Precip. -- in
7:50 AM 8:52 PM
Waning Gibbous, 62% visible
Pressure 30.09 in
Visibility 6.2 miles
Clouds Scattered Clouds 5500 ft
Dew Point 45 °F
Humidity 76%
Rainfall 0.00 in
Snow Depth Not available.
UV 2 out of 12
Pollen Not available.
Air Quality Not available.
Flu Activity Not available.
METAR LELN 040800Z VRB02KT 9999 SCT055 11/07 Q1019
Pressure 30.09 in
Visibility 6.2 miles
Clouds Scattered Clouds 5500 ft
Dew Point 45 °F
Humidity 76%
Rainfall 0.00 in
Snow Depth Not available.
UV 2 out of 12
Pollen Not available.
Air Quality Not available.
Flu Activity Not available.
METAR LELN 040800Z VRB02KT 9999 SCT055 11/07 Q1019

10-Day Weather Forecast

×

Almanac

Astronomy

Sep. 04, 2015 Rise Set
Actual Time
Civil Twilight
Nautical Twilight
Astronomical Twilight
Moon
Length of Visible Light
Length of Day
Tomorrow will be .
, % of the Moon is Illuminated

Today's Extremes

Country Highs Country Lows

Community

WunderPhotos

Upload Photos

1,852,141 photos uploaded!

WunderBlogs® & News

Nearby

Air Quality

  Air Quality AQ Index Pollutant
Not available.

Snow Depth

Station Depth Elevation

Earthquake Activity

City Distance Mag. Time & Date
Minimum magnitude displayed is 2.5.

Coastal Water Temperatures

Place Temperature

Stations

Nearby Weather Stations

Station Location Temp. Windchill Dew Point Humidity Wind Precip. Elev Updated Type